Kandiyohi, Minnesota
Current Conditions -  °F | °C
As of 5:55 AM on Friday 28 Nov 2014 (Local Time) from KBDH Reporting Station
Clear Clear  
Wind Chill: -7°   Ceiling: Unl
Heat Index:   Visibility: 10mi
Dew Point:   Wind: 13mph
Humidity: 79%   Direction: 100°E
Pressure: 29.96"   Gusts: NA
Location:  45.13°N, 94.93°W
Report Text: KBDH 281155Z AUTO 10011KT 10SM CLR M13/M16 A2996 RMK AO2
Loading
Personal Weather Stations






























Interactive Weather Map New forecast layout! Learn more

10-Day Weather Forecast

Advertisements
Track Severe Weather on mobile